Weather

Webcam

Metar / TAF

Zurich

  • LSZH 042220Z AUTO 29004KT 9999 FEW004 SCT011 BKN021 14/14 Q1014 NOSIG

  • TAF LSZH 042025Z 0421/0603 VRB02KT 9999 FEW005 SCT025 BKN040 TX21/0514Z TN13/0504Z TEMPO 0421/0424 RA PROB30 0422/0507 4000 BR BKN012 PROB30 TEMPO 0505/0509 SHRA PROB40 TEMPO 0511/0516 24010KT TEMPO 0511/0520 SHRA PROB30 TEMPO 0600/0603 SHRA

Dübendorf

  • LSMD 042220Z AUTO 30002KT 9999NDV -SHRA FEW010 SCT073 14/13 Q1014 RMK

  • TAF LSMD 041625Z 0417/0523 VRB02KT 9999 -RA FEW009 SCT025 OVC040 TEMPO 0417/0424 RA PROB30 0502/0507 4000 BR BKN012 TEMPO 0512/0523 SHRA FEW040TCU

St. Gallen

  • LSZR 042250Z AUTO VRB03KT 9999 -RA SCT009 BKN011 BKN014 15/15 Q1013

  • TAF AMD LSZR 222054Z 2220/2224 CNL

Bern

  • LSZB 042250Z AUTO VRB01KT 9999 NSC 13/13 Q1014

  • TAF AMD TAF AMD LSZB 222054Z 2220/2224 CNL

Locarno

  • LSZL 042220Z AUTO 08003KT 9999NDV -RA FEW072 SCT100 17/17 Q1010 RMK

  • TAF AMD TAF AMD LSZL 150713Z 1509/1521 VRB03KT 9999 SCT050

Samedan

  • LSZS 042250Z AUTO VRB02KT 9999 RA BKN008 07/07 Q1016

  • TAF AMD LSZS 222054Z 2220/2224 CNL

Geneve

  • LSGG 042250Z AUTO 33003KT 7000 SCT080 14/14 Q1014 NOSIG

  • TAF TAF LSGG 042025Z 0421/0603 VRB02KT 9999 SCT020 BKN090 TX22/0515Z TN13/0505Z TEMPO 0502/0511 SHRA BECMG 0509/0511 23012KT BECMG 0519/0521 VRB02KT

Weather-Charts



Wind at FL50: 06:00z, 09:00z, 12:00z, 15:00z and 18:00z